Time;durP1;ratioP1;P1;durP2;ratioP2;P2;SDS_P1;SDS_P2;PMS_P1;PMS_P2;Temp;Humidity;BMP_temperature;BMP_pressure;BME280_temperature;BME280_humidity;BME280_pressure;Samples;Min_cycle;Max_cycle;Signal;HPM_P1;HPM_P2
2021/04/14 00:01:06;;;;;;;12.70;10.50;;;1.90;94.40;;;;;;5068539;28;20713;-86
2021/04/14 00:03:33;;;;;;;11.90;9.97;;;1.90;94.30;;;;;;5062345;28;20200;-85
2021/04/14 00:05:59;;;;;;;13.10;10.20;;;1.90;93.80;;;;;;5057332;28;20576;-85
2021/04/14 00:08:27;;;;;;;14.13;10.13;;;1.80;93.70;;;;;;5069539;28;20204;-85
2021/04/14 00:10:55;;;;;;;12.57;10.20;;;1.80;93.90;;;;;;5058023;28;20233;-85
2021/04/14 00:13:25;;;;;;;12.80;10.33;;;1.80;94.00;;;;;;5067825;28;20207;-84
2021/04/14 00:15:53;;;;;;;13.10;10.13;;;1.70;94.00;;;;;;5059942;28;20718;-84
2021/04/14 00:18:20;;;;;;;14.93;10.73;;;1.80;94.20;;;;;;5069275;28;20224;-86
2021/04/14 00:20:47;;;;;;;11.77;9.57;;;1.80;94.20;;;;;;5062820;28;20244;-84
2021/04/14 00:23:16;;;;;;;14.73;10.67;;;1.80;93.80;;;;;;5065815;28;20272;-85
2021/04/14 00:25:45;;;;;;;12.13;10.03;;;1.80;93.80;;;;;;5066023;28;20233;-88
2021/04/14 00:28:13;;;;;;;12.40;10.00;;;1.70;93.80;;;;;;5053621;28;20682;-85
2021/04/14 00:30:40;;;;;;;13.80;10.57;;;1.70;93.90;;;;;;5062913;28;20224;-84
2021/04/14 00:33:06;;;;;;;12.70;10.20;;;1.70;94.00;;;;;;5070986;28;20215;-85
2021/04/14 00:35:33;;;;;;;12.43;10.23;;;1.70;93.80;;;;;;5070474;28;20238;-86
2021/04/14 00:37:59;;;;;;;12.23;10.27;;;1.70;93.60;;;;;;5073850;28;20204;-84
2021/04/14 00:40:29;;;;;;;12.67;9.77;;;1.70;93.60;;;;;;5071043;28;20223;-84
2021/04/14 00:42:56;;;;;;;12.03;9.83;;;1.60;93.90;;;;;;5070242;28;20206;-85
2021/04/14 00:45:23;;;;;;;12.87;9.50;;;1.60;94.40;;;;;;5074035;28;20293;-83
2021/04/14 00:47:49;;;;;;;11.57;9.83;;;1.60;94.30;;;;;;5074544;28;20206;-86
2021/04/14 00:50:19;;;;;;;10.70;9.40;;;1.70;94.00;;;;;;5076995;28;20714;-85
2021/04/14 00:52:45;;;;;;;12.83;9.70;;;1.70;93.80;;;;;;5076122;28;20213;-86
2021/04/14 00:55:15;;;;;;;11.30;9.30;;;1.60;93.80;;;;;;5074581;28;20221;-84
2021/04/14 00:57:42;;;;;;;11.40;9.60;;;1.70;93.70;;;;;;5076466;28;20230;-84
2021/04/14 01:00:16;;;;;;;12.80;10.00;;;1.60;93.70;;;;;;5072704;28;20220;-83
2021/04/14 01:02:42;;;;;;;12.20;9.03;;;1.70;93.70;;;;;;5072500;28;20203;-84
2021/04/14 01:05:11;;;;;;;14.60;9.50;;;1.70;93.50;;;;;;5075521;28;20217;-84
2021/04/14 01:07:37;;;;;;;13.20;8.97;;;1.70;93.30;;;;;;5076313;28;20194;-84
2021/04/14 01:10:04;;;;;;;11.90;9.20;;;1.60;93.20;;;;;;5075561;28;20234;-83
2021/04/14 01:12:30;;;;;;;12.03;8.83;;;1.60;93.30;;;;;;5068718;28;20204;-86
2021/04/14 01:14:57;;;;;;;12.27;8.97;;;1.60;93.10;;;;;;5072792;28;20779;-83
2021/04/14 01:17:24;;;;;;;10.60;8.70;;;1.60;93.10;;;;;;5075544;28;20200;-85
2021/04/14 01:19:51;;;;;;;11.30;9.03;;;1.60;93.00;;;;;;5078174;28;20574;-84
2021/04/14 01:22:18;;;;;;;10.97;8.67;;;1.70;92.80;;;;;;5071096;28;20198;-84
2021/04/14 01:24:44;;;;;;;12.23;8.93;;;1.70;92.70;;;;;;5074885;28;20227;-83
2021/04/14 01:27:10;;;;;;;10.67;8.60;;;1.60;93.00;;;;;;5079345;28;20293;-84
2021/04/14 01:29:37;;;;;;;11.77;8.60;;;1.60;93.00;;;;;;5074518;28;20257;-85
2021/04/14 01:32:04;;;;;;;11.20;9.07;;;1.60;92.80;;;;;;5080024;28;20235;-85
2021/04/14 01:34:30;;;;;;;10.50;8.73;;;1.60;92.80;;;;;;5074801;28;20230;-83
2021/04/14 01:36:56;;;;;;;11.43;9.00;;;1.60;92.90;;;;;;5077271;28;20259;-84
2021/04/14 01:39:24;;;;;;;11.03;8.10;;;1.60;92.90;;;;;;5077397;28;20230;-83
2021/04/14 01:41:50;;;;;;;11.40;9.17;;;1.60;92.90;;;;;;5082360;28;20198;-85
2021/04/14 01:44:16;;;;;;;10.87;9.27;;;1.50;92.90;;;;;;5067838;28;20263;-84
2021/04/14 01:46:43;;;;;;;11.57;8.57;;;1.50;92.90;;;;;;5073787;28;20211;-85
2021/04/14 01:49:11;;;;;;;11.07;9.03;;;1.50;92.90;;;;;;5070418;28;20329;-86
2021/04/14 01:51:37;;;;;;;12.97;8.93;;;1.50;93.20;;;;;;5075775;28;20203;-82
2021/04/14 01:54:05;;;;;;;10.93;8.63;;;1.50;93.10;;;;;;5073245;28;20311;-84
2021/04/14 01:56:32;;;;;;;10.87;8.67;;;1.60;93.00;;;;;;5076155;28;20210;-84
2021/04/14 01:58:59;;;;;;;10.53;8.20;;;1.60;92.70;;;;;;5076616;28;20256;-83
2021/04/14 02:01:25;;;;;;;11.97;8.77;;;1.70;92.40;;;;;;5077266;28;20237;-83
2021/04/14 02:03:51;;;;;;;10.13;8.23;;;1.70;92.40;;;;;;5075995;28;20200;-83
2021/04/14 02:06:18;;;;;;;11.83;8.17;;;1.60;92.20;;;;;;5075053;28;20218;-84
2021/04/14 02:08:45;;;;;;;10.93;7.97;;;1.60;92.10;;;;;;5079768;28;20210;-84
2021/04/14 02:11:14;;;;;;;12.10;8.50;;;1.60;92.60;;;;;;5076706;28;20263;-87
2021/04/14 02:13:43;;;;;;;12.77;8.33;;;1.60;92.40;;;;;;5080907;28;20210;-86
2021/04/14 02:16:13;;;;;;;9.10;7.60;;;1.60;92.40;;;;;;5090181;28;20221;-88
2021/04/14 02:18:40;;;;;;;11.83;7.80;;;1.60;92.40;;;;;;5078012;28;20290;-84
2021/04/14 02:21:06;;;;;;;9.40;7.97;;;1.60;92.50;;;;;;5068489;28;20222;-88
2021/04/14 02:23:34;;;;;;;8.33;7.37;;;1.70;92.50;;;;;;5073751;28;20202;-83
2021/04/14 02:26:03;;;;;;;9.77;7.83;;;1.70;92.40;;;;;;5069527;28;20427;-83
2021/04/14 02:28:29;;;;;;;10.13;8.13;;;1.60;92.70;;;;;;5075299;28;20199;-85
2021/04/14 02:30:57;;;;;;;12.53;8.10;;;1.60;92.80;;;;;;5079333;28;20305;-84
2021/04/14 02:33:24;;;;;;;11.47;7.90;;;1.70;92.60;;;;;;5079683;28;20204;-89
2021/04/14 02:35:52;;;;;;;8.67;7.30;;;1.70;92.40;;;;;;5081497;28;20222;-88
2021/04/14 02:38:18;;;;;;;10.10;7.80;;;1.80;92.10;;;;;;5075398;28;20224;-86
2021/04/14 02:40:45;;;;;;;10.30;7.50;;;1.80;92.10;;;;;;5067683;28;20236;-85
2021/04/14 02:43:12;;;;;;;8.93;7.17;;;1.80;92.20;;;;;;5071600;28;20214;-84
2021/04/14 02:45:40;;;;;;;10.20;6.93;;;1.80;92.10;;;;;;5069337;28;20219;-85
2021/04/14 02:48:10;;;;;;;8.33;6.83;;;1.80;91.90;;;;;;5067470;28;20678;-86
2021/04/14 02:50:37;;;;;;;8.87;7.17;;;1.90;92.00;;;;;;5070919;28;20220;-87
2021/04/14 02:53:04;;;;;;;8.53;7.00;;;1.80;91.90;;;;;;5057365;28;20318;-84
2021/04/14 02:55:32;;;;;;;8.43;7.00;;;1.70;92.20;;;;;;5066239;28;20225;-85
2021/04/14 02:57:58;;;;;;;10.43;7.50;;;1.70;92.20;;;;;;5069556;28;20199;-85
2021/04/14 03:00:27;;;;;;;9.87;7.60;;;1.60;92.20;;;;;;5071736;28;20221;-85
2021/04/14 03:02:55;;;;;;;8.90;7.40;;;1.50;92.50;;;;;;5067462;28;20634;-84
2021/04/14 03:05:27;;;;;;;12.97;7.47;;;1.50;92.70;;;;;;5066016;28;20682;-85
2021/04/14 03:07:53;;;;;;;8.23;6.70;;;1.50;92.80;;;;;;5070679;28;20592;-86
2021/04/14 03:10:20;;;;;;;11.57;8.40;;;1.50;92.80;;;;;;5065770;28;20244;-85
2021/04/14 03:12:47;;;;;;;11.97;7.23;;;1.50;92.80;;;;;;5072118;28;20242;-85
2021/04/14 03:15:14;;;;;;;8.50;6.70;;;1.60;92.70;;;;;;5062342;28;20784;-86
2021/04/14 03:17:41;;;;;;;9.50;7.27;;;1.60;92.50;;;;;;5069299;28;20218;-87
2021/04/14 03:20:10;;;;;;;15.13;8.20;;;1.60;92.50;;;;;;5071030;28;20271;-88
2021/04/14 03:22:37;;;;;;;10.37;7.90;;;1.60;92.50;;;;;;5072636;28;20197;-85
2021/04/14 03:25:05;;;;;;;10.60;7.87;;;1.50;92.20;;;;;;5072921;28;20237;-85
2021/04/14 03:27:31;;;;;;;11.17;8.00;;;1.50;92.60;;;;;;5065626;28;20201;-88
2021/04/14 03:29:58;;;;;;;10.80;7.20;;;1.60;92.50;;;;;;5072052;28;20224;-85
2021/04/14 03:32:24;;;;;;;9.63;7.47;;;1.60;92.50;;;;;;5068205;28;20611;-87
2021/04/14 03:34:51;;;;;;;12.87;8.20;;;1.50;92.20;;;;;;5072674;28;20464;-85
2021/04/14 03:37:17;;;;;;;9.23;7.80;;;1.50;92.30;;;;;;5073717;28;20209;-84
2021/04/14 03:39:46;;;;;;;8.83;7.87;;;1.50;92.30;;;;;;5065638;28;20231;-85
2021/04/14 03:42:12;;;;;;;9.83;7.40;;;1.60;92.20;;;;;;5070551;28;20648;-86
2021/04/14 03:44:39;;;;;;;10.57;7.80;;;1.50;92.10;;;;;;5070746;28;20604;-85
2021/04/14 03:47:06;;;;;;;11.33;7.60;;;1.50;92.30;;;;;;5071107;28;20574;-84
2021/04/14 03:49:32;;;;;;;10.37;7.70;;;1.50;92.10;;;;;;5070102;28;20248;-84
2021/04/14 03:51:59;;;;;;;9.97;7.47;;;1.50;92.40;;;;;;5074016;28;20203;-85
2021/04/14 03:54:26;;;;;;;10.47;7.47;;;1.50;92.40;;;;;;5073200;28;20334;-86
2021/04/14 03:56:53;;;;;;;10.23;7.23;;;1.50;92.30;;;;;;5076085;28;20276;-85
2021/04/14 03:59:19;;;;;;;9.60;7.67;;;1.50;92.30;;;;;;5072900;28;20221;-87
2021/04/14 04:01:46;;;;;;;10.33;7.57;;;1.50;92.20;;;;;;5070812;28;20302;-85
2021/04/14 04:04:12;;;;;;;9.17;7.80;;;1.50;92.10;;;;;;5068776;28;20550;-84
2021/04/14 04:06:38;;;;;;;9.23;7.50;;;1.50;92.10;;;;;;5074560;28;20253;-82
2021/04/14 04:09:05;;;;;;;10.00;7.33;;;1.50;91.90;;;;;;5059967;28;20669;-85
2021/04/14 04:11:32;;;;;;;9.57;7.27;;;1.40;91.80;;;;;;5068553;28;20714;-88
2021/04/14 04:13:59;;;;;;;10.60;8.43;;;1.30;92.20;;;;;;5070994;28;20207;-85
2021/04/14 04:16:26;;;;;;;11.67;8.03;;;1.20;92.30;;;;;;5073273;28;20227;-84
2021/04/14 04:18:53;;;;;;;11.70;7.53;;;1.20;92.60;;;;;;5069445;28;20227;-84
2021/04/14 04:21:20;;;;;;;10.03;7.50;;;1.20;92.80;;;;;;5066479;28;20231;-86
2021/04/14 04:23:46;;;;;;;10.70;7.60;;;1.20;92.80;;;;;;5075567;28;20199;-81
2021/04/14 04:26:13;;;;;;;9.80;7.47;;;1.30;92.90;;;;;;5074119;28;20619;-87
2021/04/14 04:28:39;;;;;;;10.17;7.20;;;1.30;92.60;;;;;;5074940;28;20729;-85
2021/04/14 04:31:07;;;;;;;10.83;8.83;;;1.30;92.70;;;;;;5075968;28;20665;-87
2021/04/14 04:33:33;;;;;;;12.63;7.70;;;1.30;92.70;;;;;;5075676;28;20220;-86
2021/04/14 04:36:00;;;;;;;15.13;7.97;;;1.30;92.70;;;;;;5071911;28;20227;-84
2021/04/14 04:38:27;;;;;;;10.60;7.83;;;1.30;92.60;;;;;;5072701;28;20218;-86
2021/04/14 04:40:53;;;;;;;10.57;7.47;;;1.40;92.50;;;;;;5069682;28;20222;-86
2021/04/14 04:43:20;;;;;;;10.20;8.30;;;1.40;92.30;;;;;;5065539;28;20665;-85
2021/04/14 04:45:47;;;;;;;11.17;7.67;;;1.40;92.30;;;;;;5072182;28;20592;-86
2021/04/14 04:48:14;;;;;;;11.47;8.00;;;1.40;92.00;;;;;;5068217;28;20250;-84
2021/04/14 04:50:40;;;;;;;12.53;8.20;;;1.50;91.80;;;;;;5067915;28;20678;-84
2021/04/14 04:53:09;;;;;;;10.27;7.73;;;1.40;91.90;;;;;;5065909;28;20203;-86
2021/04/14 04:55:35;;;;;;;10.70;7.57;;;1.40;92.10;;;;;;5072640;28;20224;-83
2021/04/14 04:58:02;;;;;;;13.97;7.50;;;1.50;92.10;;;;;;5069706;28;20192;-82
2021/04/14 05:00:28;;;;;;;13.40;7.67;;;1.50;91.90;;;;;;5065008;28;20234;-83
2021/04/14 05:02:55;;;;;;;10.30;7.43;;;1.60;91.70;;;;;;5068412;28;20780;-83
2021/04/14 05:05:28;;;;;;;12.07;7.70;;;1.60;91.70;;;;;;5070371;28;20225;-82
2021/04/14 05:07:55;;;;;;;11.00;7.80;;;1.60;91.70;;;;;;5074559;28;20210;-82
2021/04/14 05:10:22;;;;;;;13.73;7.83;;;1.70;91.40;;;;;;5069600;28;20227;-83
2021/04/14 05:12:50;;;;;;;13.53;7.40;;;1.70;91.10;;;;;;5067994;28;20199;-88
2021/04/14 05:15:19;;;;;;;12.37;8.30;;;1.70;91.00;;;;;;5068960;28;20297;-83
2021/04/14 05:17:46;;;;;;;12.40;7.60;;;1.80;91.00;;;;;;5069202;28;20211;-84
2021/04/14 05:20:12;;;;;;;9.13;7.73;;;1.70;91.10;;;;;;5075219;28;20690;-85
2021/04/14 05:22:39;;;;;;;12.40;8.37;;;1.70;91.20;;;;;;5078293;28;20210;-83
2021/04/14 05:25:09;;;;;;;10.90;7.57;;;1.70;91.10;;;;;;5071968;28;20241;-84
2021/04/14 05:27:37;;;;;;;13.80;8.30;;;1.80;91.00;;;;;;5068787;28;20242;-84
2021/04/14 05:30:05;;;;;;;9.80;7.80;;;1.90;91.20;;;;;;5066570;28;20226;-83
2021/04/14 05:32:32;;;;;;;11.37;7.77;;;1.90;91.10;;;;;;5064184;28;20229;-84
2021/04/14 05:34:58;;;;;;;10.60;8.00;;;2.00;91.10;;;;;;5073765;28;20246;-84
2021/04/14 05:37:27;;;;;;;11.90;8.47;;;2.00;90.90;;;;;;5073449;28;20193;-83
2021/04/14 05:39:54;;;;;;;11.67;7.20;;;2.10;91.00;;;;;;5067162;28;20285;-86
2021/04/14 05:42:21;;;;;;;11.17;7.63;;;2.10;90.80;;;;;;5073026;28;20225;-84
2021/04/14 05:44:47;;;;;;;12.90;8.00;;;2.20;90.60;;;;;;5075555;28;20228;-85
2021/04/14 05:47:13;;;;;;;10.47;7.40;;;2.20;90.60;;;;;;5072611;28;20196;-86
2021/04/14 05:49:41;;;;;;;9.97;7.30;;;2.30;90.60;;;;;;5071200;28;20724;-83
2021/04/14 05:52:08;;;;;;;12.77;7.90;;;2.40;90.10;;;;;;5074873;28;20203;-84
2021/04/14 05:54:42;;;;;;;12.10;8.13;;;2.50;90.20;;;;;;5077556;28;20250;-84
2021/04/14 06:03:58;;;;;;;13.27;8.03;;;3.00;87.70;;;;;;5073020;28;20585;-86
2021/04/14 06:06:26;;;;;;;13.57;8.73;;;3.40;86.50;;;;;;5069217;28;20585;-85
2021/04/14 06:08:52;;;;;;;12.63;7.73;;;4.00;84.80;;;;;;5071749;28;20205;-87
2021/04/14 06:12:13;;;;;;;11.37;8.07;;;4.70;79.10;;;;;;5069685;28;20230;-87
2021/04/14 06:14:39;;;;;;;12.80;7.87;;;5.30;76.70;;;;;;5072480;28;20721;-88
2021/04/14 06:17:06;;;;;;;11.07;8.00;;;5.90;72.20;;;;;;5060532;28;20544;-87
2021/04/14 06:19:35;;;;;;;13.43;8.03;;;6.60;69.30;;;;;;5065441;28;20225;-89
2021/04/14 06:22:01;;;;;;;11.07;7.00;;;7.40;62.00;;;;;;5074756;28;20205;-88
2021/04/14 06:24:28;;;;;;;10.60;6.80;;;7.90;57.70;;;;;;5072767;28;20260;-89
2021/04/14 06:26:57;;;;;;;9.17;6.90;;;7.80;53.80;;;;;;5073674;28;20205;-88
2021/04/14 06:29:23;;;;;;;10.70;7.73;;;7.60;54.30;;;;;;5078230;28;20276;-89
2021/04/14 06:31:50;;;;;;;10.10;6.93;;;7.50;56.70;;;;;;5081616;28;20237;-85
2021/04/14 06:34:19;;;;;;;13.27;7.47;;;7.70;56.10;;;;;;5082595;28;20213;-86
2021/04/14 06:43:11;;;;;;;9.90;6.50;;;8.40;50.10;;;;;;5063166;28;20269;-87
2021/04/14 06:46:05;;;;;;;9.35;6.50;;;8.40;48.30;;;;;;5070990;28;20217;-91
2021/04/14 06:48:38;;;;;;;9.68;6.30;;;8.80;47.40;;;;;;5073949;28;20208;-89
2021/04/14 06:51:10;;;;;;;13.38;6.38;;;9.40;45.30;;;;;;5078191;28;20256;-89
2021/04/14 06:53:47;;;;;;;10.40;5.93;;;9.90;42.70;;;;;;5084839;28;20211;-88
2021/04/14 06:59:01;;;;;;;14.93;6.13;;;9.60;44.40;;;;;;5087547;28;20280;-88
2021/04/14 07:01:33;;;;;;;9.98;6.00;;;9.50;44.60;;;;;;5079690;28;20783;-90
2021/04/14 07:04:07;;;;;;;11.38;6.10;;;9.90;44.00;;;;;;5078809;28;20205;-90
2021/04/14 07:06:35;;;;;;;9.43;5.43;;;10.20;43.00;;;;;;5081148;28;20217;-88
2021/04/14 07:09:08;;;;;;;9.10;4.43;;;10.10;39.60;;;;;;5080833;28;20217;-88
2021/04/14 07:11:36;;;;;;;11.70;4.45;;;10.00;38.30;;;;;;5071480;28;20217;-89
2021/04/14 07:14:03;;;;;;;8.43;4.35;;;10.00;38.00;;;;;;5078680;28;20215;-87
2021/04/14 07:16:42;;;;;;;7.93;4.65;;;9.40;38.90;;;;;;5079524;28;20587;-89
2021/04/14 07:19:20;;;;;;;7.95;4.30;;;8.50;41.70;;;;;;5071558;28;20252;-90
2021/04/14 07:21:50;;;;;;;5.93;3.90;;;8.00;43.80;;;;;;5067500;28;20212;-88
2021/04/14 07:24:25;;;;;;;7.20;3.80;;;7.90;44.20;;;;;;5069812;28;20197;-87
2021/04/14 07:26:58;;;;;;;6.30;3.60;;;7.60;42.90;;;;;;5072943;28;20193;-89
2021/04/14 07:29:33;;;;;;;7.63;3.72;;;7.60;46.50;;;;;;5066365;28;20181;-89
2021/04/14 07:32:14;;;;;;;4.90;3.97;;;7.70;44.50;;;;;;5069839;28;20221;-88
2021/04/14 07:35:09;;;;;;;7.63;4.20;;;7.20;45.70;;;;;;5069106;28;20301;-88
2021/04/14 07:37:44;;;;;;;6.63;4.43;;;7.00;45.90;;;;;;5058967;28;20204;-89
2021/04/14 07:40:17;;;;;;;5.27;3.60;;;7.00;45.90;;;;;;5062950;28;20243;-88
2021/04/14 07:42:53;;;;;;;6.60;3.90;;;7.10;46.00;;;;;;5059950;28;20205;-89
2021/04/14 07:45:25;;;;;;;5.10;3.67;;;7.40;46.20;;;;;;5054757;28;20229;-88
2021/04/14 07:47:56;;;;;;;10.20;3.72;;;7.70;43.30;;;;;;5067301;28;20201;-90
2021/04/14 07:50:29;;;;;;;4.88;3.40;;;7.80;43.50;;;;;;5066381;28;20263;-89
2021/04/14 07:53:04;;;;;;;4.85;3.05;;;7.70;42.70;;;;;;5075232;28;20505;-88
2021/04/14 07:55:33;;;;;;;6.18;3.72;;;7.80;42.70;;;;;;5068036;28;20691;-87
2021/04/14 07:58:14;;;;;;;4.18;2.88;;;7.60;42.00;;;;;;5066356;28;20201;-87
2021/04/14 08:00:42;;;;;;;6.43;3.43;;;7.40;44.40;;;;;;5063268;28;20221;-88
2021/04/14 08:03:11;;;;;;;6.00;3.23;;;6.70;45.60;;;;;;5065101;28;20197;-89
2021/04/14 08:05:37;;;;;;;5.17;2.93;;;6.40;45.40;;;;;;5068121;28;20225;-88
2021/04/14 08:08:15;;;;;;;6.00;3.00;;;6.50;45.50;;;;;;5069382;28;20201;-87
2021/04/14 08:10:52;;;;;;;5.33;3.20;;;6.60;45.60;;;;;;5066736;28;20233;-86
2021/04/14 08:13:29;;;;;;;9.90;3.20;;;7.00;45.90;;;;;;5073805;28;20200;-85
2021/04/14 08:15:58;;;;;;;5.50;2.87;;;6.60;44.60;;;;;;5067175;28;20236;-88
2021/04/14 08:18:28;;;;;;;4.33;2.67;;;6.80;44.20;;;;;;5070856;28;20609;-89
2021/04/14 08:21:09;;;;;;;3.77;2.50;;;7.40;41.60;;;;;;5079569;28;20491;-86
2021/04/14 08:23:36;;;;;;;5.90;3.30;;;8.10;40.20;;;;;;5070126;28;20197;-88
2021/04/14 08:26:15;;;;;;;4.07;2.90;;;8.60;40.40;;;;;;5060473;28;20234;-86
2021/04/14 08:28:46;;;;;;;5.85;3.25;;;9.20;39.50;;;;;;5074953;28;20213;-84
2021/04/14 08:34:13;;;;;;;4.63;2.47;;;10.00;37.20;;;;;;5069766;28;20292;-90
2021/04/14 08:39:39;;;;;;;5.88;2.92;;;10.20;33.20;;;;;;5063481;28;20229;-89
2021/04/14 08:42:12;;;;;;;5.28;2.75;;;10.20;33.60;;;;;;5073949;28;20619;-88
2021/04/14 08:44:47;;;;;;;5.20;3.10;;;10.40;33.90;;;;;;5069791;28;20308;-91
2021/04/14 08:47:17;;;;;;;4.65;2.90;;;10.40;34.20;;;;;;5068635;28;20201;-90
2021/04/14 08:49:47;;;;;;;5.63;3.00;;;11.30;32.90;;;;;;5064858;28;20597;-89
2021/04/14 08:52:18;;;;;;;7.43;3.45;;;11.30;32.70;;;;;;5074600;28;20549;-91
2021/04/14 08:54:44;;;;;;;8.65;3.00;;;10.10;32.20;;;;;;5075536;28;20261;-88
2021/04/14 08:57:11;;;;;;;3.50;2.58;;;10.10;34.00;;;;;;5081080;28;20196;-91
2021/04/14 08:59:40;;;;;;;5.00;2.78;;;9.60;33.60;;;;;;5066729;28;20681;-89
2021/04/14 09:02:09;;;;;;;5.72;2.80;;;9.50;34.50;;;;;;5079422;28;20567;-89
2021/04/14 09:04:36;;;;;;;6.13;2.60;;;9.20;35.30;;;;;;5074812;28;20225;-88
2021/04/14 09:07:04;;;;;;;7.03;3.00;;;8.70;35.60;;;;;;5075110;28;20725;-88
2021/04/14 09:09:42;;;;;;;3.88;2.33;;;8.30;35.70;;;;;;5065964;28;20225;-89
2021/04/14 09:12:09;;;;;;;4.50;2.03;;;7.90;38.70;;;;;;5077336;28;20228;-87
2021/04/14 09:14:38;;;;;;;5.53;2.60;;;7.40;35.90;;;;;;5075938;28;20266;-87
2021/04/14 09:17:16;;;;;;;8.10;2.22;;;7.10;37.90;;;;;;5079700;28;20198;-86
2021/04/14 09:19:45;;;;;;;4.97;2.50;;;7.10;38.50;;;;;;5076318;28;20236;-86
2021/04/14 09:22:23;;;;;;;4.17;2.33;;;6.90;39.50;;;;;;5080547;28;20251;-88
2021/04/14 09:24:51;;;;;;;9.20;2.17;;;7.00;38.00;;;;;;5074885;28;20213;-86
2021/04/14 09:27:25;;;;;;;4.07;2.60;;;6.80;37.20;;;;;;5066263;28;20204;-87
2021/04/14 09:30:03;;;;;;;6.97;2.70;;;6.80;39.00;;;;;;5062074;28;20225;-87
2021/04/14 09:32:49;;;;;;;5.20;2.50;;;6.90;40.20;;;;;;5078472;28;20441;-85
2021/04/14 09:35:18;;;;;;;4.67;2.40;;;7.00;38.70;;;;;;5077064;28;20225;-86
2021/04/14 09:37:45;;;;;;;4.27;2.50;;;7.00;39.20;;;;;;5077130;28;20205;-85
2021/04/14 09:40:14;;;;;;;4.70;2.57;;;7.00;40.00;;;;;;5071455;28;20228;-85
2021/04/14 09:42:42;;;;;;;4.07;2.20;;;7.20;37.60;;;;;;5081430;28;20198;-85
2021/04/14 09:45:34;;;;;;;4.03;2.13;;;7.10;37.50;;;;;;5070371;28;20221;-85
2021/04/14 09:48:14;;;;;;;7.17;2.50;;;7.40;37.20;;;;;;5067735;28;20208;-85
2021/04/14 09:50:43;;;;;;;4.82;2.83;;;8.20;39.00;;;;;;5078806;28;20221;-86
2021/04/14 09:53:23;;;;;;;8.40;3.03;;;9.70;37.80;;;;;;5078149;28;20225;-86
2021/04/14 09:55:56;;;;;;;7.60;2.75;;;11.00;32.50;;;;;;5079554;28;20224;-87
2021/04/14 09:58:28;;;;;;;6.03;2.70;;;11.80;31.80;;;;;;5071294;28;20621;-87
2021/04/14 10:00:58;;;;;;;7.22;2.22;;;11.60;29.80;;;;;;5081874;28;20233;-89
2021/04/14 10:03:31;;;;;;;7.03;2.80;;;11.10;29.90;;;;;;5085229;28;20574;-85
2021/04/14 10:06:13;;;;;;;6.47;2.75;;;10.40;33.10;;;;;;5085954;28;20225;-86
2021/04/14 10:08:42;;;;;;;3.45;2.35;;;10.10;34.30;;;;;;5081282;28;20197;-86
2021/04/14 10:11:10;;;;;;;6.65;2.85;;;10.60;34.10;;;;;;5077616;28;20225;-85
2021/04/14 10:14:10;;;;;;;4.22;2.17;;;11.30;30.90;;;;;;5084182;28;20221;-87
2021/04/14 10:17:09;;;;;;;4.10;2.45;;;11.80;28.20;;;;;;5074050;28;20297;-88
2021/04/14 10:19:37;;;;;;;3.33;2.30;;;11.90;29.10;;;;;;5071403;28;20264;-90
2021/04/14 10:22:09;;;;;;;4.55;2.30;;;12.60;30.30;;;;;;5060838;28;20190;-87
2021/04/14 10:24:37;;;;;;;4.60;2.70;;;13.40;27.70;;;;;;5065177;28;20229;-89
2021/04/14 10:27:04;;;;;;;3.17;2.42;;;13.40;26.50;;;;;;5066971;28;20197;-90
2021/04/14 10:29:37;;;;;;;3.58;2.45;;;13.00;26.20;;;;;;5065581;28;20225;-86
2021/04/14 10:32:04;;;;;;;4.35;2.60;;;12.60;25.80;;;;;;5064986;28;20248;-89
2021/04/14 10:34:32;;;;;;;4.45;2.72;;;10.90;26.80;;;;;;5064523;28;20221;-90
2021/04/14 10:37:11;;;;;;;3.72;2.10;;;9.70;30.90;;;;;;5068338;28;20201;-87
2021/04/14 10:39:37;;;;;;;2.30;2.10;;;10.10;30.10;;;;;;5068167;28;20237;-88
2021/04/14 10:42:17;;;;;;;5.63;2.67;;;10.30;30.30;;;;;;5066334;28;20641;-89
2021/04/14 10:44:45;;;;;;;5.40;2.20;;;10.30;29.30;;;;;;5064247;28;20233;-89
2021/04/14 10:47:17;;;;;;;2.58;2.05;;;10.40;29.50;;;;;;5063919;28;20194;-89
2021/04/14 10:49:44;;;;;;;6.43;2.65;;;10.80;27.50;;;;;;5068745;28;20221;-89
2021/04/14 10:52:18;;;;;;;2.88;2.10;;;10.50;29.20;;;;;;5069325;28;20242;-87
2021/04/14 10:54:48;;;;;;;4.28;2.20;;;9.70;32.00;;;;;;5061196;28;20230;-90
2021/04/14 10:57:21;;;;;;;4.22;2.05;;;8.80;32.20;;;;;;5074219;28;20254;-89
2021/04/14 10:59:48;;;;;;;9.98;2.40;;;8.20;33.50;;;;;;5062924;28;20707;-88
2021/04/14 11:02:21;;;;;;;4.47;2.20;;;7.90;35.10;;;;;;5068677;28;20598;-89
2021/04/14 11:04:48;;;;;;;2.97;1.80;;;7.60;36.70;;;;;;5075221;28;20236;-86
2021/04/14 11:07:20;;;;;;;4.28;2.20;;;7.30;37.90;;;;;;5076993;28;20257;-88
2021/04/14 11:09:47;;;;;;;3.42;2.00;;;7.20;38.40;;;;;;5076393;28;20279;-88
2021/04/14 11:12:16;;;;;;;6.23;2.27;;;7.10;40.40;;;;;;5073233;28;20216;-88
2021/04/14 11:14:44;;;;;;;5.00;1.80;;;7.10;40.00;;;;;;5067259;28;20233;-87
2021/04/14 11:17:18;;;;;;;7.23;2.30;;;6.70;40.50;;;;;;5064244;28;20205;-87
2021/04/14 11:19:54;;;;;;;4.57;2.00;;;6.70;42.00;;;;;;5067518;28;20236;-86
2021/04/14 11:22:21;;;;;;;2.73;2.00;;;6.70;40.30;;;;;;5064299;28;20186;-89
2021/04/14 11:24:49;;;;;;;3.77;2.23;;;6.70;39.70;;;;;;5065299;28;20229;-85
2021/04/14 11:27:19;;;;;;;6.03;2.10;;;6.60;40.30;;;;;;5068863;28;20197;-89
2021/04/14 11:29:47;;;;;;;4.20;2.30;;;6.60;41.10;;;;;;5069867;28;20229;-87
2021/04/14 11:32:19;;;;;;;3.20;2.30;;;6.60;40.50;;;;;;5059042;28;20226;-89
2021/04/14 11:34:57;;;;;;;4.17;2.40;;;6.90;40.80;;;;;;5063952;28;20570;-88
2021/04/14 11:37:28;;;;;;;2.37;2.17;;;7.30;41.50;;;;;;5075668;28;20198;-87
2021/04/14 11:39:58;;;;;;;2.67;2.00;;;7.30;38.50;;;;;;5066993;28;20639;-88
2021/04/14 11:42:26;;;;;;;4.88;2.33;;;7.70;37.30;;;;;;5072618;28;20206;-88
2021/04/14 11:44:53;;;;;;;6.80;2.20;;;7.80;38.60;;;;;;5069053;28;20236;-88
2021/04/14 11:47:23;;;;;;;3.35;2.50;;;8.20;37.70;;;;;;5074357;28;20186;-89
2021/04/14 11:49:50;;;;;;;5.05;2.33;;;8.30;37.00;;;;;;5078962;28;20233;-89
2021/04/14 11:52:22;;;;;;;3.20;2.30;;;8.20;35.50;;;;;;5071868;28;20197;-89
2021/04/14 11:54:51;;;;;;;3.60;2.03;;;8.40;35.10;;;;;;5072441;28;20601;-88
2021/04/14 11:57:23;;;;;;;2.25;2.05;;;8.30;34.80;;;;;;5072787;28;20202;-88
2021/04/14 12:00:03;;;;;;;3.90;2.03;;;8.80;36.20;;;;;;5068340;28;20255;-87
2021/04/14 12:02:31;;;;;;;4.47;1.90;;;9.00;34.30;;;;;;5071814;28;21158;-88
2021/04/14 12:05:00;;;;;;;3.22;1.98;;;9.10;33.80;;;;;;5070620;28;20244;-90
2021/04/14 12:07:26;;;;;;;4.85;2.28;;;8.70;34.20;;;;;;5067141;28;20277;-91
2021/04/14 12:09:54;;;;;;;2.30;1.77;;;8.80;32.00;;;;;;5072929;28;20258;-90
2021/04/14 12:12:21;;;;;;;2.63;1.98;;;9.00;31.70;;;;;;5069335;28;21175;-90
2021/04/14 12:14:48;;;;;;;6.80;2.20;;;9.10;31.10;;;;;;5063742;28;20226;-89
2021/04/14 12:17:15;;;;;;;4.38;2.40;;;9.40;31.00;;;;;;5067169;28;20288;-90
2021/04/14 12:19:44;;;;;;;4.88;2.40;;;9.30;32.90;;;;;;5064636;28;20637;-89
2021/04/14 12:22:10;;;;;;;4.00;2.50;;;9.30;33.40;;;;;;5066914;28;20221;-90
2021/04/14 12:24:37;;;;;;;4.25;2.30;;;9.30;35.10;;;;;;5072526;28;20221;-91
2021/04/14 12:27:04;;;;;;;3.47;2.10;;;9.10;34.20;;;;;;5067699;28;20197;-90
2021/04/14 12:29:31;;;;;;;3.78;2.63;;;9.10;33.60;;;;;;5068774;28;20238;-90
2021/04/14 12:31:57;;;;;;;6.80;2.22;;;8.40;32.90;;;;;;5072810;28;20221;-89
2021/04/14 12:34:24;;;;;;;4.47;2.60;;;8.60;33.70;;;;;;5069865;28;20205;-89
2021/04/14 12:36:50;;;;;;;2.50;2.03;;;8.70;33.50;;;;;;5067515;28;20208;-89
2021/04/14 12:39:16;;;;;;;3.72;2.45;;;8.20;32.00;;;;;;5064106;28;20198;-89
2021/04/14 12:41:43;;;;;;;4.40;2.33;;;8.30;32.10;;;;;;5064360;28;20202;-90
2021/04/14 12:44:10;;;;;;;4.40;2.38;;;8.50;33.20;;;;;;5064431;28;20197;-90
2021/04/14 12:46:41;;;;;;;3.25;2.30;;;8.40;35.20;;;;;;5059682;28;20225;-89
2021/04/14 12:49:12;;;;;;;4.35;2.22;;;8.80;31.40;;;;;;5071092;28;20246;-90
2021/04/14 12:51:43;;;;;;;5.53;2.20;;;8.60;32.50;;;;;;5065554;28;20221;-90
2021/04/14 12:54:23;;;;;;;3.08;2.33;;;9.00;32.80;;;;;;5065177;28;20197;-89
2021/04/14 12:56:53;;;;;;;4.38;2.22;;;9.40;31.90;;;;;;5068335;28;20669;-90
2021/04/14 12:59:23;;;;;;;3.80;2.72;;;9.70;34.40;;;;;;5068187;28;20319;-90
2021/04/14 13:01:53;;;;;;;4.13;2.10;;;9.80;34.30;;;;;;5070046;28;20201;-89
2021/04/14 13:04:26;;;;;;;5.32;2.42;;;9.80;31.80;;;;;;5071527;28;20209;-90
2021/04/14 13:06:57;;;;;;;3.40;2.17;;;9.70;32.70;;;;;;5071711;28;20197;-89
2021/04/14 13:09:24;;;;;;;5.65;2.75;;;9.40;31.30;;;;;;5070419;28;20297;-89
2021/04/14 13:12:00;;;;;;;3.83;2.38;;;9.00;31.80;;;;;;5071327;28;20197;-89
2021/04/14 13:14:27;;;;;;;4.80;3.03;;;8.70;32.20;;;;;;5068581;28;20645;-88
2021/04/14 13:16:56;;;;;;;6.03;2.53;;;8.40;33.70;;;;;;5069875;28;20212;-89
2021/04/14 13:19:26;;;;;;;3.22;2.92;;;8.10;36.00;;;;;;5065588;28;20225;-89
2021/04/14 13:22:00;;;;;;;4.18;2.55;;;7.80;39.60;;;;;;5065377;28;20198;-89
2021/04/14 13:24:33;;;;;;;4.32;2.92;;;7.40;43.10;;;;;;5064424;28;20496;-90